Time;durP1;ratioP1;P1;durP2;ratioP2;P2;SDS_P1;SDS_P2;PMS_P1;PMS_P2;Temp;Humidity;BMP_temperature;BMP_pressure;BME280_temperature;BME280_humidity;BME280_pressure;Samples;Min_cycle;Max_cycle;Signal;HPM_P1;HPM_P2
2021/10/02 00:37:19;;;;;;;4.63;4.22;;;;;;;9.66;100.00;93135.66;2123646;27;20495;-88
2021/10/02 00:44:47;;;;;;;4.63;3.97;;;;;;;9.53;100.00;93140.09;2109339;28;20016;-91
2021/10/02 00:45:49;;;;;;;5.40;4.47;;;;;;;9.41;100.00;93141.44;2098089;28;20472;-91
2021/10/02 00:46:51;;;;;;;4.85;4.32;;;;;;;9.59;100.00;93136.53;2098510;28;20105;-91
2021/10/02 00:47:57;;;;;;;5.05;4.20;;;;;;;9.55;100.00;93143.09;2090448;28;20382;-90
2021/10/02 00:48:58;;;;;;;6.57;4.68;;;;;;;9.49;100.00;93144.75;2090541;28;20828;-89
2021/10/02 00:50:00;;;;;;;5.97;4.93;;;;;;;9.50;100.00;93151.56;2107096;28;20528;-93
2021/10/02 00:51:01;;;;;;;5.78;5.05;;;;;;;9.51;100.00;93145.81;2116548;27;20023;-89
2021/10/02 00:52:04;;;;;;;5.07;4.60;;;;;;;9.67;100.00;93145.19;2106407;28;20036;-91
2021/10/02 00:53:05;;;;;;;5.32;4.28;;;;;;;9.55;100.00;93146.50;2090391;28;20017;-90
2021/10/02 00:54:06;;;;;;;4.95;4.13;;;;;;;9.43;100.00;93141.00;2090332;28;20028;-93
2021/10/02 00:55:08;;;;;;;5.57;4.97;;;;;;;9.53;100.00;93143.50;2090262;28;20398;-90
2021/10/02 00:56:11;;;;;;;6.40;4.32;;;;;;;9.53;100.00;93140.84;2090128;28;20040;-89
2021/10/02 00:57:13;;;;;;;5.82;4.70;;;;;;;9.47;100.00;93136.38;2098670;28;20024;-90
2021/10/02 00:58:14;;;;;;;6.07;5.20;;;;;;;9.58;100.00;93131.63;2090194;28;20535;-91
2021/10/02 00:59:15;;;;;;;5.68;4.35;;;;;;;9.47;100.00;93136.38;2098504;28;20032;-89
2021/10/02 01:00:16;;;;;;;5.55;4.38;;;;;;;9.43;100.00;93131.09;2098345;28;20025;-91
2021/10/02 01:01:25;;;;;;;4.95;4.55;;;;;;;9.48;100.00;93135.97;2097850;28;20021;-89
2021/10/02 01:02:40;;;;;;;5.43;4.77;;;;;;;9.55;100.00;93132.44;2099210;28;20099;-89
2021/10/02 01:04:01;;;;;;;6.03;5.07;;;;;;;9.49;100.00;93134.81;2100530;28;20474;-88
2021/10/02 01:05:23;;;;;;;5.60;4.10;;;;;;;9.45;100.00;93136.03;2104132;28;20453;-90
2021/10/02 01:06:46;;;;;;;6.18;5.05;;;;;;;9.45;100.00;93133.38;2106757;28;20039;-87
2021/10/02 01:08:07;;;;;;;9.25;4.93;;;;;;;9.45;100.00;93136.03;2109241;27;20472;-91
2021/10/02 01:09:28;;;;;;;7.47;4.95;;;;;;;9.46;100.00;93134.88;2092789;28;20032;-91
2021/10/02 01:10:58;;;;;;;5.97;4.70;;;;;;;9.49;100.00;93134.81;2092754;28;20087;-88
2021/10/02 01:12:05;;;;;;;8.95;5.00;;;;;;;9.45;100.00;93128.78;2093736;28;20103;-90
2021/10/02 01:13:16;;;;;;;4.90;4.40;;;;;;;9.38;100.00;93134.22;2083064;28;20124;-90
2021/10/02 01:14:48;;;;;;;6.15;4.68;;;;;;;9.38;100.00;93131.56;2091439;28;20064;-91
2021/10/02 01:15:52;;;;;;;6.53;4.75;;;;;;;9.42;100.00;93129.59;2098204;28;20105;-88
2021/10/02 01:17:00;;;;;;;7.28;4.85;;;;;;;9.40;100.00;93121.25;2090269;28;20028;-88
2021/10/02 01:18:22;;;;;;;5.13;4.53;;;;;;;9.50;100.00;93125.66;2090794;28;20070;-88
2021/10/02 01:19:32;;;;;;;5.43;4.68;;;;;;;9.38;100.00;93122.81;2092669;28;20058;-91
2021/10/02 01:21:02;;;;;;;6.90;4.95;;;;;;;9.40;100.00;93126.59;2085022;28;20478;-90
2021/10/02 01:22:12;;;;;;;5.72;4.63;;;;;;;9.40;100.00;93125.84;2097892;28;20032;-88
2021/10/02 01:23:41;;;;;;;4.85;4.18;;;;;;;9.30;100.00;93116.84;2103320;28;20028;-89
2021/10/02 01:24:45;;;;;;;6.28;4.68;;;;;;;9.36;100.00;93117.91;2110251;28;20024;-88
2021/10/02 01:26:10;;;;;;;5.07;4.57;;;;;;;9.37;100.00;93121.31;2098931;28;20095;-90
2021/10/02 01:27:47;;;;;;;5.20;4.22;;;;;;;9.36;100.00;93119.81;2112930;27;20030;-90
2021/10/02 01:28:54;;;;;;;4.90;4.47;;;;;;;9.34;100.00;93128.19;2078511;28;20103;-90
2021/10/02 01:29:59;;;;;;;8.02;4.45;;;;;;;9.39;100.00;93117.06;2114456;27;20058;-94
2021/10/02 01:31:06;;;;;;;5.50;4.50;;;;;;;9.30;100.00;93119.50;2106696;28;20513;-89
2021/10/02 01:32:17;;;;;;;5.85;4.65;;;;;;;9.29;100.00;93115.34;2092631;28;20060;-91
2021/10/02 01:33:44;;;;;;;6.32;4.95;;;;;;;9.18;100.00;93123.53;2109330;28;20035;-92
2021/10/02 01:36:11;;;;;;;4.68;4.28;;;;;;;9.16;100.00;93122.41;2109347;28;20027;-92
2021/10/02 01:48:05;;;;;;;6.35;4.18;;;;;;;9.03;100.00;93116.91;2082998;28;20030;-90
2021/10/02 01:49:07;;;;;;;6.70;4.13;;;;;;;9.02;100.00;93115.41;2097997;28;20017;-91
2021/10/02 01:50:09;;;;;;;6.90;4.60;;;;;;;9.03;100.00;93114.25;2106480;28;20027;-90
2021/10/02 01:51:13;;;;;;;6.00;4.07;;;;;;;9.04;100.00;93113.84;2103415;28;20157;-91
2021/10/02 01:52:15;;;;;;;5.72;4.32;;;;;;;9.09;100.00;93115.28;2114946;28;20050;-90
2021/10/02 01:53:18;;;;;;;5.93;4.63;;;;;;;8.97;100.00;93110.53;2114872;28;20047;-91
2021/10/02 01:54:20;;;;;;;4.32;3.92;;;;;;;8.96;100.00;93114.38;2106515;28;20016;-90
2021/10/02 01:55:23;;;;;;;4.65;4.13;;;;;;;8.93;100.00;93110.59;2106696;28;20109;-91
2021/10/02 01:56:25;;;;;;;5.13;4.35;;;;;;;8.84;100.00;93110.34;2115797;28;20507;-87
2021/10/02 01:57:34;;;;;;;4.38;3.97;;;;;;;8.90;100.00;93110.63;2104316;28;20047;-91
2021/10/02 01:58:36;;;;;;;5.65;4.28;;;;;;;8.93;100.00;93109.84;2100938;28;20027;-91
2021/10/02 01:59:39;;;;;;;4.72;4.32;;;;;;;8.89;100.00;93109.88;2099019;28;20094;-90
2021/10/02 02:00:46;;;;;;;5.00;4.28;;;;;;;8.90;100.00;93114.06;2098719;28;20118;-91
2021/10/02 02:01:49;;;;;;;5.03;4.53;;;;;;;8.94;100.00;93111.34;2098896;28;20046;-92
2021/10/02 02:02:55;;;;;;;9.23;4.20;;;;;;;8.95;100.00;93113.59;2107171;28;20057;-90
2021/10/02 02:03:57;;;;;;;4.60;4.20;;;;;;;8.94;100.00;93108.66;2102901;28;20024;-93
2021/10/02 02:05:01;;;;;;;4.75;4.20;;;;;;;8.86;100.00;93105.34;2102520;28;20071;-88
2021/10/02 02:07:44;;;;;;;;;;;;;;;8.68;100.00;93108.28;2148891;27;20109;-78
2021/10/02 02:08:46;;;;;;;4.22;3.83;;;;;;;8.71;100.00;93109.41;2138928;27;19918;-80
2021/10/02 02:09:50;;;;;;;3.90;3.58;;;;;;;8.74;100.00;93108.59;2139335;27;20487;-77
2021/10/02 02:10:54;;;;;;;5.38;4.88;;;;;;;8.67;100.00;93103.38;2148467;27;20021;-79
2021/10/02 02:11:56;;;;;;;6.90;4.70;;;;;;;8.63;100.00;93106.09;2148326;27;20014;-78
2021/10/02 02:13:00;;;;;;;5.10;4.15;;;;;;;8.71;100.00;93107.50;2148321;27;20067;-78
2021/10/02 02:14:03;;;;;;;4.50;4.10;;;;;;;8.74;100.00;93109.34;2138731;27;20070;-78
2021/10/02 02:15:08;;;;;;;4.93;4.20;;;;;;;8.71;100.00;93109.41;2130845;27;20082;-77
2021/10/02 02:16:11;;;;;;;5.38;4.53;;;;;;;8.57;100.00;93103.13;2139720;27;20465;-78
2021/10/02 02:17:15;;;;;;;6.13;4.43;;;;;;;8.60;100.00;93108.78;2148340;27;20010;-80
2021/10/02 02:18:20;;;;;;;7.85;4.38;;;;;;;8.63;100.00;93100.00;2148226;27;20029;-76
2021/10/02 02:19:24;;;;;;;6.32;4.90;;;;;;;8.65;100.00;93097.69;2130294;27;20048;-75
2021/10/02 02:20:40;;;;;;;5.03;4.07;;;;;;;8.58;100.00;93095.88;2122879;27;20015;-79
2021/10/02 02:21:45;;;;;;;4.22;3.83;;;;;;;8.65;100.00;93098.47;2123924;27;20047;-77
2021/10/02 02:22:48;;;;;;;5.80;4.63;;;;;;;8.64;100.00;93098.84;2122426;27;20016;-77
2021/10/02 02:23:49;;;;;;;5.38;4.63;;;;;;;8.58;100.00;93096.63;2130459;27;20440;-76
2021/10/02 02:24:50;;;;;;;6.18;4.38;;;;;;;8.63;100.00;93098.09;2121619;28;20152;-79
2021/10/02 02:25:56;;;;;;;6.75;4.60;;;;;;;8.66;100.00;93097.28;2122057;27;20059;-78
2021/10/02 02:26:57;;;;;;;6.10;4.30;;;;;;;8.65;100.00;93101.13;2130350;27;20023;-76
2021/10/02 02:27:59;;;;;;;5.20;4.70;;;;;;;8.66;100.00;93099.97;2130513;27;20068;-78
2021/10/02 02:29:02;;;;;;;5.53;4.47;;;;;;;8.65;100.00;93103.78;2130042;27;20034;-77
2021/10/02 02:30:03;;;;;;;4.65;4.13;;;;;;;8.77;100.00;93102.44;2121797;27;20097;-77
2021/10/02 02:31:06;;;;;;;4.97;4.32;;;;;;;8.79;100.00;93100.16;2130506;27;20025;-78
2021/10/02 02:32:07;;;;;;;6.10;4.30;;;;;;;8.74;100.00;93103.28;2139541;27;20443;-76
2021/10/02 02:33:08;;;;;;;4.95;4.45;;;;;;;8.73;100.00;93091.84;2139451;27;20495;-78
2021/10/02 02:34:11;;;;;;;10.82;4.68;;;;;;;8.75;100.00;93099.44;2140613;27;20022;-79
2021/10/02 02:35:13;;;;;;;5.68;4.15;;;;;;;8.68;100.00;93086.22;2148323;27;20026;-79
2021/10/02 02:36:14;;;;;;;6.38;4.03;;;;;;;8.71;100.00;93088.84;2132446;27;20066;-79
2021/10/02 02:37:16;;;;;;;5.40;4.82;;;;;;;8.70;100.00;93091.91;2121848;27;20365;-79
2021/10/02 02:38:16;;;;;;;5.78;4.78;;;;;;;8.73;100.00;93096.41;2130297;27;20023;-78
2021/10/02 02:39:18;;;;;;;4.95;4.25;;;;;;;8.73;100.00;93096.41;2130243;27;20465;-78
2021/10/02 02:40:21;;;;;;;5.45;4.65;;;;;;;8.69;100.00;93095.72;2121595;27;20028;-80
2021/10/02 02:41:22;;;;;;;6.75;4.68;;;;;;;8.84;100.00;93086.38;2130743;27;20106;-77
2021/10/02 02:42:23;;;;;;;5.95;4.35;;;;;;;8.78;100.00;93087.97;2139427;27;20030;-78
2021/10/02 02:43:32;;;;;;;8.02;4.60;;;;;;;8.64;100.00;93091.59;2142657;27;20037;-78
2021/10/02 02:44:33;;;;;;;5.90;4.45;;;;;;;8.66;100.00;93097.28;2148080;27;20106;-78
2021/10/02 02:45:34;;;;;;;4.22;3.83;;;;;;;8.64;100.00;93093.50;2147518;27;20029;-78
2021/10/02 02:46:38;;;;;;;4.65;4.25;;;;;;;8.60;100.00;93076.81;2139343;27;20018;-79
2021/10/02 02:48:02;;;;;;;11.20;4.70;;;;;;;8.59;100.00;93076.06;2139377;27;20027;-76
2021/10/02 02:49:14;;;;;;;9.68;4.47;;;;;;;8.68;100.00;93084.31;2134247;27;20059;-78
2021/10/02 02:50:23;;;;;;;5.38;4.40;;;;;;;8.85;100.00;93087.13;2139938;27;20451;-76
2021/10/02 02:51:43;;;;;;;5.03;4.28;;;;;;;8.81;100.00;93085.25;2138036;27;20026;-77
2021/10/02 02:52:51;;;;;;;4.72;4.32;;;;;;;8.89;100.00;93087.81;2138834;27;20027;-78
2021/10/02 02:54:19;;;;;;;5.38;4.28;;;;;;;8.69;100.00;93080.50;2139360;27;20033;-79
2021/10/02 02:55:23;;;;;;;5.32;4.43;;;;;;;8.70;100.00;93075.94;2141750;27;20035;-79
2021/10/02 02:56:38;;;;;;;10.35;4.35;;;;;;;8.72;100.00;93087.69;2138828;27;20022;-80
2021/10/02 02:58:03;;;;;;;6.65;4.70;;;;;;;8.79;100.00;93086.81;2137417;27;20046;-77
2021/10/02 02:59:10;;;;;;;5.50;4.05;;;;;;;8.90;100.00;93087.41;2124581;27;20076;-75
2021/10/02 03:00:21;;;;;;;6.75;4.05;;;;;;;8.88;100.00;93091.66;2131199;27;20096;-78
2021/10/02 03:01:25;;;;;;;4.63;3.85;;;;;;;8.79;100.00;93089.50;2137734;27;20044;-78
2021/10/02 03:02:29;;;;;;;6.03;4.15;;;;;;;8.75;100.00;93076.22;2130584;27;20102;-77
2021/10/02 03:03:35;;;;;;;4.63;4.22;;;;;;;8.76;100.00;93071.63;2134998;27;20046;-77
2021/10/02 03:04:37;;;;;;;5.57;4.53;;;;;;;8.77;100.00;93073.13;2139128;27;20011;-78
2021/10/02 03:05:40;;;;;;;4.57;4.13;;;;;;;8.74;100.00;93065.97;2138656;27;20026;-80
2021/10/02 03:06:49;;;;;;;4.85;4.40;;;;;;;8.83;100.00;93074.94;2137396;27;20022;-78
2021/10/02 03:07:59;;;;;;;6.00;4.40;;;;;;;8.75;100.00;93072.81;2129971;27;20035;-78
2021/10/02 03:09:01;;;;;;;4.13;3.70;;;;;;;8.73;100.00;93073.19;2122957;27;20126;-76
2021/10/02 03:10:04;;;;;;;5.22;4.30;;;;;;;8.70;100.00;93073.25;2130202;27;20025;-77
2021/10/02 03:11:06;;;;;;;4.75;4.35;;;;;;;8.78;100.00;93070.09;2129303;27;20144;-77
2021/10/02 03:12:10;;;;;;;5.55;4.18;;;;;;;8.71;100.00;93070.19;2121749;27;20038;-78
2021/10/02 03:13:14;;;;;;;4.82;4.20;;;;;;;8.76;100.00;93068.97;2121360;28;20023;-79
2021/10/02 03:14:21;;;;;;;4.07;3.75;;;;;;;8.73;100.00;93067.09;2123988;27;20043;-78
2021/10/02 03:15:24;;;;;;;4.40;3.83;;;;;;;8.70;100.00;93067.94;2129746;27;20019;-78
2021/10/02 03:16:28;;;;;;;4.00;3.50;;;;;;;8.69;100.00;93067.19;2129958;27;20545;-77
2021/10/02 03:17:30;;;;;;;4.40;4.00;;;;;;;8.67;100.00;93066.81;2129428;27;20046;-77
2021/10/02 03:18:35;;;;;;;5.57;3.47;;;;;;;8.69;100.00;93072.50;2127555;27;20050;-79
2021/10/02 03:19:38;;;;;;;9.45;4.50;;;;;;;8.66;100.00;93067.22;2124156;27;20018;-79
2021/10/02 03:20:41;;;;;;;4.85;3.90;;;;;;;8.71;100.00;93072.09;2123992;27;20113;-77
2021/10/02 03:21:45;;;;;;;4.10;3.67;;;;;;;8.71;100.00;93061.44;2124297;27;20027;-77
2021/10/02 03:22:50;;;;;;;6.43;4.07;;;;;;;8.69;100.00;93064.53;2133261;27;20027;-78
2021/10/02 03:23:53;;;;;;;7.07;4.68;;;;;;;8.62;100.00;93064.63;2115755;28;20030;-78
2021/10/02 03:24:56;;;;;;;5.38;3.90;;;;;;;8.64;100.00;93064.19;2116090;27;20375;-77
2021/10/02 03:26:00;;;;;;;4.88;3.75;;;;;;;8.64;100.00;93075.63;2133287;27;20374;-79
2021/10/02 03:27:03;;;;;;;4.50;3.70;;;;;;;8.65;100.00;93073.69;2133335;27;20063;-77
2021/10/02 03:28:04;;;;;;;4.20;3.22;;;;;;;8.58;100.00;93096.63;2132681;27;20030;-79
2021/10/02 03:29:06;;;;;;;6.80;3.67;;;;;;;8.62;100.00;93085.19;2132650;27;20071;-79
2021/10/02 03:30:09;;;;;;;4.43;3.78;;;;;;;8.57;100.00;93087.16;2133142;27;20022;-78
2021/10/02 03:31:11;;;;;;;9.70;4.10;;;;;;;8.58;100.00;93096.63;2124086;27;20023;-79
2021/10/02 03:32:13;;;;;;;4.75;3.55;;;;;;;8.61;100.00;93089.00;2115751;28;20368;-80
2021/10/02 03:33:21;;;;;;;6.32;3.95;;;;;;;8.60;100.00;93084.81;2118192;27;20068;-76
2021/10/02 03:34:23;;;;;;;5.90;3.40;;;;;;;8.58;100.00;93083.31;2124708;27;20027;-77
2021/10/02 03:35:24;;;;;;;5.10;3.90;;;;;;;8.60;100.00;93077.56;2127693;27;20029;-79
2021/10/02 03:36:26;;;;;;;4.05;3.15;;;;;;;8.61;100.00;93076.44;2112051;28;20031;-78
2021/10/02 03:37:29;;;;;;;4.30;3.90;;;;;;;8.55;100.00;93078.03;2107560;28;20016;-79
2021/10/02 03:38:31;;;;;;;4.63;3.35;;;;;;;8.54;100.00;93082.63;2115712;28;20027;-77
2021/10/02 03:39:32;;;;;;;3.55;3.25;;;;;;;8.56;100.00;93076.91;2119774;27;20120;-77
2021/10/02 03:40:34;;;;;;;4.28;3.30;;;;;;;8.70;100.00;93086.59;2124588;27;20055;-79
2021/10/02 03:41:35;;;;;;;3.70;3.17;;;;;;;8.61;100.00;93087.09;2115567;28;20408;-78
2021/10/02 03:42:45;;;;;;;4.32;3.25;;;;;;;8.54;100.00;93085.28;2115650;28;20023;-77
2021/10/02 03:43:46;;;;;;;3.30;2.90;;;;;;;8.58;100.00;93087.91;2115646;28;20024;-79
2021/10/02 03:44:50;;;;;;;3.85;3.05;;;;;;;8.68;100.00;93086.22;2115783;28;20020;-79
2021/10/02 03:45:51;;;;;;;5.93;3.22;;;;;;;8.58;100.00;93085.97;2124344;27;20068;-79
2021/10/02 03:46:52;;;;;;;4.55;3.25;;;;;;;8.54;100.00;93082.63;2124538;27;20027;-77
2021/10/02 03:47:54;;;;;;;3.25;2.95;;;;;;;8.58;100.00;93079.91;2106989;28;20035;-78
2021/10/02 03:48:55;;;;;;;4.60;3.03;;;;;;;8.69;100.00;93082.41;2099024;28;20032;-77
2021/10/02 03:49:57;;;;;;;3.10;2.80;;;;;;;8.64;100.00;93077.53;2115833;27;20051;-77
2021/10/02 03:50:58;;;;;;;3.75;3.17;;;;;;;8.61;100.00;93075.69;2130962;27;20022;-78
2021/10/02 03:51:59;;;;;;;4.20;2.70;;;;;;;8.62;100.00;93079.84;2123925;27;20031;-77
2021/10/02 03:53:00;;;;;;;4.93;3.00;;;;;;;8.66;100.00;93080.56;2123971;27;20070;-78
2021/10/02 03:54:02;;;;;;;3.38;3.00;;;;;;;8.67;100.00;93082.06;2133028;27;20041;-78
2021/10/02 03:55:06;;;;;;;3.38;2.85;;;;;;;8.64;100.00;93083.59;2115412;28;20518;-78
2021/10/02 03:56:09;;;;;;;4.88;2.78;;;;;;;8.63;100.00;93079.44;2115820;27;20024;-76
2021/10/02 03:57:10;;;;;;;3.83;3.40;;;;;;;8.73;100.00;93078.50;2124367;27;20027;-78
2021/10/02 03:58:11;;;;;;;3.30;3.00;;;;;;;8.60;100.00;93087.47;2132934;27;20511;-79
2021/10/02 03:59:12;;;;;;;4.78;3.22;;;;;;;8.58;100.00;93083.31;2133089;27;20018;-79
2021/10/02 04:00:14;;;;;;;2.58;2.35;;;;;;;8.50;100.00;93079.25;2133042;27;20030;-77
2021/10/02 04:01:18;;;;;;;3.67;2.50;;;;;;;8.51;100.00;93083.41;2132853;27;20015;-78
2021/10/02 04:02:20;;;;;;;3.13;2.30;;;;;;;8.52;100.00;93079.59;2133009;27;20057;-79
2021/10/02 04:03:21;;;;;;;2.65;2.20;;;;;;;8.55;100.00;93076.13;2112575;28;20019;-79
2021/10/02 04:04:25;;;;;;;2.55;2.35;;;;;;;8.66;100.00;93073.31;2107813;27;20024;-77
2021/10/02 04:05:26;;;;;;;3.08;2.47;;;;;;;8.67;100.00;93079.38;2124473;27;20047;-77
2021/10/02 04:06:29;;;;;;;3.40;2.40;;;;;;;8.70;100.00;93081.25;2124395;27;20029;-77
2021/10/02 04:07:30;;;;;;;3.25;2.45;;;;;;;8.65;100.00;93079.03;2114897;28;20048;-78
2021/10/02 04:08:31;;;;;;;3.38;2.20;;;;;;;8.66;100.00;93078.63;2106790;28;20020;-77
2021/10/02 04:09:32;;;;;;;2.78;2.30;;;;;;;8.70;100.00;93070.59;2107120;28;20020;-78
2021/10/02 04:10:34;;;;;;;3.67;2.35;;;;;;;8.77;100.00;93078.47;2115204;28;20023;-78
2021/10/02 04:11:35;;;;;;;5.22;2.78;;;;;;;8.73;100.00;93078.50;2115337;28;20030;-80
2021/10/02 04:12:36;;;;;;;3.92;2.42;;;;;;;8.73;100.00;93078.50;2115913;28;20026;-78
2021/10/02 04:13:38;;;;;;;2.85;1.98;;;;;;;8.76;100.00;93084.97;2115691;28;20047;-79
2021/10/02 04:14:39;;;;;;;5.10;2.05;;;;;;;8.89;99.33;93071.81;2115257;28;20027;-78
2021/10/02 04:15:40;;;;;;;1.83;1.70;;;;;;;8.84;100.00;93081.03;2106705;28;20054;-77
2021/10/02 04:16:41;;;;;;;2.88;2.10;;;;;;;8.90;100.00;93075.97;2106850;28;20019;-78
2021/10/02 04:17:42;;;;;;;2.53;1.98;;;;;;;8.78;100.00;93083.41;2115869;28;20409;-77
2021/10/02 04:18:43;;;;;;;6.30;2.33;;;;;;;8.84;100.00;93078.38;2115893;28;20038;-79
2021/10/02 04:19:45;;;;;;;4.00;2.58;;;;;;;8.82;100.00;93073.44;2115728;28;20019;-78
2021/10/02 04:20:46;;;;;;;3.15;1.70;;;;;;;8.76;100.00;93084.97;2114856;28;20110;-79
2021/10/02 04:21:47;;;;;;;2.95;2.20;;;;;;;8.86;100.00;93085.94;2115051;28;20431;-78
2021/10/02 04:22:48;;;;;;;3.08;2.20;;;;;;;8.91;100.00;93075.59;2115199;28;20174;-79
2021/10/02 04:23:50;;;;;;;3.15;2.10;;;;;;;8.76;100.00;93084.97;2115401;28;20031;-80
2021/10/02 04:24:51;;;;;;;5.20;1.92;;;;;;;8.77;100.00;93083.78;2115238;28;20023;-79
2021/10/02 04:25:52;;;;;;;3.53;2.00;;;;;;;8.79;100.00;93092.16;2115747;28;20012;-78
2021/10/02 04:26:56;;;;;;;2.95;1.80;;;;;;;8.78;100.00;93079.97;2115726;28;20468;-78
2021/10/02 04:27:57;;;;;;;3.25;2.05;;;;;;;8.75;100.00;93080.78;2115872;28;20068;-77
2021/10/02 04:28:59;;;;;;;4.60;1.63;;;;;;;8.69;100.00;93075.19;2115721;28;20019;-77
2021/10/02 04:30:00;;;;;;;4.05;1.70;;;;;;;8.68;100.00;93076.31;2115457;28;20068;-78
2021/10/02 04:31:03;;;;;;;4.28;1.75;;;;;;;8.70;100.00;93075.94;2115023;28;20437;-78
2021/10/02 04:32:04;;;;;;;2.17;1.58;;;;;;;8.67;100.00;93074.06;2114992;28;20038;-77
2021/10/02 04:33:06;;;;;;;4.57;1.42;;;;;;;8.58;98.68;93070.00;2106582;28;20499;-78
2021/10/02 04:34:07;;;;;;;2.03;1.40;;;;;;;8.73;99.12;93073.19;2114720;28;20076;-79
2021/10/02 04:35:08;;;;;;;2.63;1.67;;;;;;;8.71;99.38;93070.19;2115118;28;20034;-76
2021/10/02 04:36:09;;;;;;;1.75;1.50;;;;;;;8.90;94.98;93070.66;2114891;28;20034;-77
2021/10/02 04:37:10;;;;;;;2.33;1.45;;;;;;;8.90;97.85;93066.06;2115063;28;20034;-79
2021/10/02 04:38:11;;;;;;;1.80;1.50;;;;;;;8.80;100.00;93067.00;2115750;28;20098;-80
2021/10/02 04:39:13;;;;;;;2.10;1.63;;;;;;;8.97;100.00;93065.97;2115720;28;20452;-76
2021/10/02 04:40:14;;;;;;;3.45;1.60;;;;;;;8.85;100.00;93066.53;2115711;28;20028;-77
2021/10/02 04:41:15;;;;;;;3.30;1.20;;;;;;;8.79;95.99;93068.16;2106625;28;20577;-79
2021/10/02 04:42:19;;;;;;;1.58;1.40;;;;;;;8.78;100.00;93059.44;2106685;28;20055;-79
2021/10/02 04:43:23;;;;;;;3.83;1.30;;;;;;;8.72;100.00;93071.69;2114479;28;20473;-77
2021/10/02 04:44:24;;;;;;;2.10;1.40;;;;;;;8.69;99.37;93066.41;2114800;28;20038;-78
2021/10/02 04:45:25;;;;;;;1.33;1.23;;;;;;;8.70;100.00;93065.28;2115153;28;20406;-79
2021/10/02 04:46:26;;;;;;;2.28;1.38;;;;;;;8.65;100.00;93069.16;2115366;28;20024;-77
2021/10/02 04:47:27;;;;;;;2.00;1.30;;;;;;;8.71;100.00;93070.19;2115529;28;20540;-80
2021/10/02 04:48:28;;;;;;;4.90;1.15;;;;;;;8.76;99.57;93068.97;2115637;28;20061;-78
2021/10/02 04:49:29;;;;;;;1.65;1.13;;;;;;;8.82;98.09;93064.69;2115648;28;20088;-79
2021/10/02 04:50:32;;;;;;;1.30;1.08;;;;;;;8.73;100.00;93070.53;2115448;28;20020;-79
2021/10/02 04:51:33;;;;;;;1.45;1.25;;;;;;;8.70;93.79;93071.34;2115472;28;20024;-78
2021/10/02 04:52:34;;;;;;;2.67;1.25;;;;;;;8.77;96.06;93065.88;2115392;28;20472;-79
2021/10/02 04:53:36;;;;;;;2.35;1.52;;;;;;;8.70;99.96;93066.03;2115537;28;20015;-79
2021/10/02 04:54:37;;;;;;;2.10;1.50;;;;;;;8.79;100.00;93060.19;2114810;28;20054;-78
2021/10/02 04:55:39;;;;;;;1.25;1.15;;;;;;;8.79;100.00;93070.84;2111886;28;20027;-78
2021/10/02 04:56:40;;;;;;;2.75;1.52;;;;;;;8.81;100.00;93071.91;2115536;28;20072;-78
2021/10/02 04:57:42;;;;;;;1.50;1.20;;;;;;;8.72;100.00;93074.34;2114746;28;20016;-76
2021/10/02 04:58:43;;;;;;;3.60;1.45;;;;;;;8.68;100.00;93070.97;2115065;28;20547;-79
2021/10/02 04:59:44;;;;;;;2.85;1.70;;;;;;;8.65;100.00;93074.47;2114767;28;20026;-78
2021/10/02 05:00:46;;;;;;;3.22;1.50;;;;;;;8.54;100.00;93068.53;2114869;28;20023;-78
2021/10/02 05:01:47;;;;;;;2.70;1.58;;;;;;;8.55;100.00;93068.13;2115414;28;20028;-76
2021/10/02 05:02:48;;;;;;;2.67;1.77;;;;;;;8.44;100.00;93070.22;2114898;28;20024;-78
2021/10/02 05:03:51;;;;;;;1.90;1.52;;;;;;;8.40;100.00;93066.09;2114935;28;20411;-75
2021/10/02 05:04:54;;;;;;;1.88;1.40;;;;;;;8.33;100.00;93061.56;2115435;28;20011;-79
2021/10/02 05:05:57;;;;;;;1.88;1.67;;;;;;;8.35;100.00;93071.84;2114844;28;20559;-78
2021/10/02 05:06:58;;;;;;;1.70;1.40;;;;;;;8.30;100.00;93068.47;2116570;27;20044;-79
2021/10/02 05:07:59;;;;;;;1.60;1.50;;;;;;;8.34;100.00;93071.09;2123148;27;20027;-80
2021/10/02 05:09:00;;;;;;;2.63;1.80;;;;;;;8.25;100.00;93065.50;2115000;28;20032;-79
2021/10/02 05:10:02;;;;;;;4.25;2.22;;;;;;;8.16;100.00;93071.31;2110875;28;20031;-79
2021/10/02 05:11:05;;;;;;;2.95;2.00;;;;;;;8.11;100.00;93073.69;2106279;28;20070;-77
2021/10/02 05:12:07;;;;;;;4.50;1.85;;;;;;;8.02;100.00;93068.84;2119494;27;20019;-79
2021/10/02 05:13:08;;;;;;;4.78;1.75;;;;;;;8.03;100.00;93067.69;2123253;27;20033;-75
2021/10/02 05:14:09;;;;;;;2.92;1.85;;;;;;;8.02;100.00;93061.59;2123278;27;20060;-76
2021/10/02 05:15:11;;;;;;;2.65;2.25;;;;;;;8.09;100.00;93063.44;2123294;27;20496;-77
2021/10/02 05:16:12;;;;;;;3.83;2.20;;;;;;;8.09;100.00;93066.09;2123264;27;20027;-78
2021/10/02 05:17:15;;;;;;;2.28;2.08;;;;;;;8.10;100.00;93053.53;2124096;27;20019;-79
2021/10/02 05:18:16;;;;;;;3.72;2.53;;;;;;;7.97;100.00;93056.75;2123840;27;20419;-77
2021/10/02 05:19:17;;;;;;;2.45;2.22;;;;;;;7.91;100.00;93057.59;2123943;27;20387;-78
2021/10/02 05:20:19;;;;;;;2.38;2.17;;;;;;;7.92;100.00;93062.50;2123231;27;20023;-78
2021/10/02 05:21:20;;;;;;;4.00;2.40;;;;;;;7.92;100.00;93057.19;2115073;28;20084;-76
2021/10/02 05:22:21;;;;;;;2.83;2.60;;;;;;;7.87;100.00;93060.28;2114633;28;20027;-78
2021/10/02 05:23:23;;;;;;;4.55;2.50;;;;;;;7.97;100.00;93062.06;2123324;27;20411;-78
2021/10/02 05:24:24;;;;;;;3.85;2.70;;;;;;;7.94;100.00;93060.19;2123783;27;20038;-78
2021/10/02 05:25:25;;;;;;;2.95;2.47;;;;;;;7.88;100.00;93058.38;2123832;27;20029;-78
2021/10/02 05:26:26;;;;;;;5.88;2.78;;;;;;;7.92;100.00;93059.84;2123212;27;20022;-77
2021/10/02 05:27:28;;;;;;;2.97;2.75;;;;;;;7.81;100.00;93060.00;2114533;28;20015;-78
2021/10/02 05:28:29;;;;;;;5.47;2.75;;;;;;;7.76;100.00;93059.66;2114809;28;20028;-78
2021/10/02 05:29:30;;;;;;;3.55;2.65;;;;;;;7.72;100.00;93054.38;2123138;27;20404;-77
2021/10/02 05:30:31;;;;;;;2.80;2.55;;;;;;;7.59;100.00;93056.06;2114693;28;20030;-78
2021/10/02 05:31:32;;;;;;;3.20;2.60;;;;;;;7.55;100.00;93042.03;2102217;28;20028;-75
2021/10/02 05:32:34;;;;;;;3.97;2.50;;;;;;;7.66;100.00;93053.31;2106204;28;20531;-76
2021/10/02 05:33:35;;;;;;;3.83;2.88;;;;;;;7.71;100.00;93052.88;2115334;28;20482;-78
2021/10/02 05:34:36;;;;;;;3.67;2.63;;;;;;;7.70;100.00;93055.94;2114578;28;20023;-78
2021/10/02 05:35:37;;;;;;;2.20;2.00;;;;;;;7.56;100.00;93052.28;2106050;28;20023;-78
2021/10/02 05:36:38;;;;;;;3.85;2.60;;;;;;;7.53;100.00;93061.06;2114743;28;20051;-77
2021/10/02 05:37:40;;;;;;;4.53;2.50;;;;;;;7.63;100.00;93048.03;2114556;28;20516;-80
2021/10/02 05:38:41;;;;;;;6.28;2.67;;;;;;;7.55;100.00;93050.78;2106333;28;20504;-79
2021/10/02 05:39:42;;;;;;;4.55;2.42;;;;;;;7.54;100.00;93056.50;2120047;27;20106;-78
2021/10/02 05:40:43;;;;;;;2.60;2.40;;;;;;;7.50;100.00;93048.53;2123670;27;20022;-78
2021/10/02 05:41:45;;;;;;;3.40;2.55;;;;;;;7.55;100.00;93048.13;2123653;27;20021;-78
2021/10/02 05:42:46;;;;;;;6.97;2.50;;;;;;;7.51;100.00;93041.34;2117011;27;20059;-77
2021/10/02 05:43:47;;;;;;;3.92;2.90;;;;;;;7.60;100.00;93043.53;2106221;28;20031;-77
2021/10/02 05:44:49;;;;;;;4.78;3.40;;;;;;;7.57;100.00;93039.75;2118881;27;20026;-77
2021/10/02 05:45:50;;;;;;;3.47;2.75;;;;;;;7.57;100.00;93040.50;2107756;28;20019;-78
2021/10/02 05:46:51;;;;;;;6.50;2.25;;;;;;;7.68;100.00;93039.59;2103618;28;20078;-78
2021/10/02 05:47:52;;;;;;;4.22;2.50;;;;;;;7.68;100.00;93035.06;2097908;28;20044;-78
2021/10/02 05:48:53;;;;;;;2.85;2.20;;;;;;;7.66;100.00;93031.28;2106187;28;20099;-79
2021/10/02 05:49:55;;;;;;;2.55;2.35;;;;;;;7.56;100.00;93044.31;2097830;28;20044;-78
2021/10/02 05:50:56;;;;;;;3.50;2.47;;;;;;;7.65;100.00;93040.44;2107587;28;20024;-79
2021/10/02 05:51:58;;;;;;;2.80;2.50;;;;;;;7.64;100.00;93045.00;2115067;28;20027;-77
2021/10/02 05:52:59;;;;;;;3.90;2.90;;;;;;;7.71;100.00;93046.81;2114517;28;20020;-78
2021/10/02 05:54:00;;;;;;;2.70;2.50;;;;;;;7.69;100.00;93051.78;2114592;28;20028;-77
2021/10/02 05:55:01;;;;;;;2.70;2.50;;;;;;;7.90;100.00;93048.09;2123088;27;20058;-79
2021/10/02 05:56:03;;;;;;;2.80;2.45;;;;;;;7.85;100.00;93051.94;2123695;27;20041;-78
2021/10/02 05:57:04;;;;;;;3.08;2.50;;;;;;;7.76;100.00;93049.00;2118898;28;20103;-77
2021/10/02 05:58:05;;;;;;;4.88;2.42;;;;;;;7.79;100.00;93048.22;2114343;28;20031;-77
2021/10/02 05:59:06;;;;;;;3.00;2.70;;;;;;;7.79;100.00;93048.22;2114593;28;20430;-78